Time,TemperatureF,DewpointF,PressureIn,WindDirection,WindDirectionDegrees,WindSpeedMPH,WindSpeedGustMPH,Humidity,HourlyPrecipIn,Conditions,Clouds,dailyrainin,SoftwareType,DateUTC
2013-02-28 00:00:00,42.0,0.0,30.05,WNW,292,0.0,0.0,0,0.00,,,0.00,Weather View 32 v70,2013-02-28 08:00:00,
2013-02-28 00:05:00,42.0,0.0,30.05,NW,315,0.0,0.0,0,0.00,,,0.00,Weather View 32 v70,2013-02-28 08:05:00,
2013-02-28 00:10:00,42.0,0.0,30.04,NNW,338,0.0,0.0,0,0.00,,,0.00,Weather View 32 v70,2013-02-28 08:10:00,
2013-02-28 00:15:00,42.0,0.0,30.04,NNW,338,0.0,0.0,0,0.00,,,0.00,Weather View 32 v70,2013-02-28 08:15:00,
2013-02-28 00:20:00,42.0,0.0,30.04,NNW,338,0.0,0.0,0,0.00,,,0.00,Weather View 32 v70,2013-02-28 08:20:00,
2013-02-28 00:25:00,42.0,0.0,30.04,NNW,338,0.0,0.0,0,0.00,,,0.00,Weather View 32 v70,2013-02-28 08:25:00,
2013-02-28 00:30:00,42.0,0.0,30.04,NNW,338,0.0,0.0,0,0.00,,,0.00,Weather View 32 v70,2013-02-28 08:30:00,
2013-02-28 00:35:00,42.0,0.0,30.04,NNW,338,0.0,0.0,0,0.00,,,0.00,Weather View 32 v70,2013-02-28 08:35:00,
2013-02-28 00:40:00,42.0,0.0,30.04,NNW,338,0.0,0.0,0,0.00,,,0.01,Weather View 32 v70,2013-02-28 08:40:00,
2013-02-28 00:45:00,42.0,0.0,30.04,NNW,338,0.0,0.0,0,0.01,,,0.01,Weather View 32 v70,2013-02-28 08:45:00,
2013-02-28 00:50:00,42.0,0.0,30.04,NNW,338,0.0,0.0,0,0.01,,,0.01,Weather View 32 v70,2013-02-28 08:50:00,
2013-02-28 00:55:00,42.0,0.0,30.04,NW,315,0.0,0.0,0,0.01,,,0.01,Weather View 32 v70,2013-02-28 08:55:00,
2013-02-28 01:00:00,42.0,0.0,30.03,NW,315,0.0,0.0,0,0.02,,,0.02,Weather View 32 v70,2013-02-28 09:00:00,
2013-02-28 01:05:00,42.0,0.0,30.03,NW,315,0.0,0.0,0,0.02,,,0.02,Weather View 32 v70,2013-02-28 09:05:00,
2013-02-28 01:10:00,42.0,0.0,30.03,WNW,292,0.0,0.0,0,0.02,,,0.02,Weather View 32 v70,2013-02-28 09:10:00,
2013-02-28 01:15:00,42.0,0.0,30.03,WNW,292,0.0,0.0,0,0.02,,,0.02,Weather View 32 v70,2013-02-28 09:15:00,
2013-02-28 01:20:00,42.0,0.0,30.03,WNW,292,0.0,0.0,0,0.02,,,0.02,Weather View 32 v70,2013-02-28 09:20:00,
2013-02-28 01:25:00,42.0,0.0,30.03,WNW,292,0.0,0.0,0,0.03,,,0.03,Weather View 32 v70,2013-02-28 09:25:00,
2013-02-28 01:30:00,42.0,0.0,30.02,WNW,292,0.0,0.0,0,0.03,,,0.03,Weather View 32 v70,2013-02-28 09:30:00,
2013-02-28 01:35:00,42.0,0.0,30.03,WNW,292,0.0,0.0,0,0.03,,,0.03,Weather View 32 v70,2013-02-28 09:35:00,
2013-02-28 01:40:00,42.0,0.0,30.03,WNW,292,0.0,0.0,0,0.03,,,0.03,Weather View 32 v70,2013-02-28 09:40:00,
2013-02-28 01:45:00,42.0,0.0,30.02,WNW,292,0.0,0.0,0,0.02,,,0.04,Weather View 32 v70,2013-02-28 09:45:00,
2013-02-28 01:50:00,42.0,0.0,30.02,NW,315,0.0,0.0,0,0.03,,,0.04,Weather View 32 v70,2013-02-28 09:50:00,
2013-02-28 01:55:00,42.0,0.0,30.02,NW,315,0.0,0.0,0,0.03,,,0.04,Weather View 32 v70,2013-02-28 09:55:00,
2013-02-28 02:00:00,42.0,0.0,30.02,NW,315,0.0,0.0,0,0.02,,,0.04,Weather View 32 v70,2013-02-28 10:00:00,
2013-02-28 02:05:00,42.0,0.0,30.02,NW,315,0.0,0.0,0,0.03,,,0.05,Weather View 32 v70,2013-02-28 10:05:00,
2013-02-28 02:10:00,42.0,0.0,30.02,NW,315,0.0,0.0,0,0.03,,,0.05,Weather View 32 v70,2013-02-28 10:10:00,
2013-02-28 02:15:00,42.0,0.0,30.02,WNW,292,0.0,0.0,0,0.04,,,0.06,Weather View 32 v70,2013-02-28 10:15:00,
2013-02-28 02:20:00,42.0,0.0,30.02,WNW,292,0.0,0.0,0,0.04,,,0.06,Weather View 32 v70,2013-02-28 10:20:00,
2013-02-28 02:25:00,42.0,0.0,30.01,WNW,292,0.0,0.0,0,0.03,,,0.06,Weather View 32 v70,2013-02-28 10:25:00,
2013-02-28 02:30:00,42.0,0.0,30.01,WNW,292,0.0,0.0,0,0.03,,,0.06,Weather View 32 v70,2013-02-28 10:30:00,
2013-02-28 02:35:00,42.0,0.0,30.01,WNW,292,0.0,0.0,0,0.04,,,0.07,Weather View 32 v70,2013-02-28 10:35:00,
2013-02-28 02:40:00,42.0,0.0,30.01,WNW,292,0.0,0.0,0,0.04,,,0.07,Weather View 32 v70,2013-02-28 10:40:00,
2013-02-28 02:45:00,42.0,0.0,30.01,WNW,292,0.0,0.0,0,0.04,,,0.07,Weather View 32 v70,2013-02-28 10:45:00,
2013-02-28 02:50:00,42.0,0.0,30.01,NW,315,0.0,0.0,0,0.03,,,0.07,Weather View 32 v70,2013-02-28 10:50:00,
2013-02-28 02:55:00,42.0,0.0,30.01,West,270,0.0,0.0,0,0.04,,,0.08,Weather View 32 v70,2013-02-28 10:55:00,
2013-02-28 03:00:00,42.0,0.0,30.01,WSW,248,0.0,0.0,0,0.04,,,0.08,Weather View 32 v70,2013-02-28 11:00:00,
2013-02-28 03:06:00,42.0,0.0,30.01,WSW,248,0.0,0.0,0,0.04,,,0.08,Weather View 32 v70,2013-02-28 11:06:00,
2013-02-28 03:11:00,42.0,0.0,30.01,WSW,248,0.0,0.0,0,0.04,,,0.09,Weather View 32 v70,2013-02-28 11:11:00,
2013-02-28 03:16:00,42.0,0.0,30.01,NW,315,0.0,0.0,0,0.03,,,0.09,Weather View 32 v70,2013-02-28 11:16:00,
2013-02-28 03:21:00,42.0,0.0,30.00,NNW,338,0.0,0.0,0,0.04,,,0.10,Weather View 32 v70,2013-02-28 11:21:00,
2013-02-28 03:26:00,42.0,0.0,30.01,NW,315,0.0,0.0,0,0.04,,,0.10,Weather View 32 v70,2013-02-28 11:26:00,
2013-02-28 03:31:00,42.0,0.0,30.00,NW,315,0.0,0.0,0,0.05,,,0.11,Weather View 32 v70,2013-02-28 11:31:00,
2013-02-28 03:36:00,42.0,0.0,30.01,NW,315,0.0,0.0,0,0.05,,,0.12,Weather View 32 v70,2013-02-28 11:36:00,
2013-02-28 03:41:00,42.0,0.0,30.00,WNW,292,0.0,0.0,0,0.05,,,0.12,Weather View 32 v70,2013-02-28 11:41:00,
2013-02-28 03:46:00,42.0,0.0,30.00,WNW,292,0.0,0.0,0,0.06,,,0.13,Weather View 32 v70,2013-02-28 11:46:00,
2013-02-28 03:51:00,42.0,0.0,30.00,West,270,0.0,0.0,0,0.07,,,0.14,Weather View 32 v70,2013-02-28 11:51:00,
2013-02-28 03:56:00,42.0,0.0,30.00,WNW,292,0.0,0.0,0,0.07,,,0.15,Weather View 32 v70,2013-02-28 11:56:00,
2013-02-28 04:01:00,42.0,0.0,30.00,NW,315,0.0,0.0,0,0.08,,,0.16,Weather View 32 v70,2013-02-28 12:01:00,
2013-02-28 04:06:00,42.0,0.0,30.00,NW,315,0.0,0.0,0,0.08,,,0.16,Weather View 32 v70,2013-02-28 12:06:00,
2013-02-28 04:11:00,41.0,0.0,30.00,NNE,22,0.0,0.0,0,0.08,,,0.17,Weather View 32 v70,2013-02-28 12:11:00,
2013-02-28 04:16:00,41.0,0.0,30.00,North,0,0.0,0.0,0,0.09,,,0.18,Weather View 32 v70,2013-02-28 12:16:00,
2013-02-28 04:21:00,41.0,0.0,30.00,NNW,338,0.0,0.0,0,0.10,,,0.20,Weather View 32 v70,2013-02-28 12:21:00,
2013-02-28 04:26:00,41.0,0.0,29.99,WNW,292,0.0,0.0,0,0.10,,,0.20,Weather View 32 v70,2013-02-28 12:26:00,
2013-02-28 04:31:00,41.0,0.0,30.00,West,270,0.0,0.0,0,0.10,,,0.21,Weather View 32 v70,2013-02-28 12:31:00,
2013-02-28 04:36:00,41.0,0.0,30.00,West,270,0.0,0.0,0,0.09,,,0.21,Weather View 32 v70,2013-02-28 12:36:00,
2013-02-28 04:41:00,41.0,0.0,29.99,WSW,248,0.0,0.0,0,0.10,,,0.22,Weather View 32 v70,2013-02-28 12:41:00,
2013-02-28 04:46:00,41.0,0.0,29.99,West,270,0.0,0.0,0,0.09,,,0.22,Weather View 32 v70,2013-02-28 12:46:00,
2013-02-28 04:51:00,41.0,0.0,29.99,West,270,0.0,0.0,0,0.09,,,0.23,Weather View 32 v70,2013-02-28 12:51:00,
2013-02-28 04:56:00,41.0,0.0,29.99,West,270,0.0,0.0,0,0.08,,,0.23,Weather View 32 v70,2013-02-28 12:56:00,
2013-02-28 05:01:00,41.0,0.0,29.99,West,270,0.0,0.0,0,0.08,,,0.24,Weather View 32 v70,2013-02-28 13:01:00,
2013-02-28 05:06:00,41.0,0.0,29.98,WSW,248,0.0,0.0,0,0.08,,,0.24,Weather View 32 v70,2013-02-28 13:06:00,
2013-02-28 05:11:00,41.0,0.0,29.99,WNW,292,0.0,0.0,0,0.07,,,0.24,Weather View 32 v70,2013-02-28 13:11:00,
2013-02-28 05:16:00,41.0,0.0,29.99,WNW,292,0.0,0.0,0,0.06,,,0.24,Weather View 32 v70,2013-02-28 13:16:00,
2013-02-28 05:21:00,41.0,0.0,29.99,WSW,248,0.0,0.0,0,0.04,,,0.24,Weather View 32 v70,2013-02-28 13:21:00,
2013-02-28 05:26:00,41.0,0.0,29.98,WSW,248,0.0,0.0,0,0.05,,,0.25,Weather View 32 v70,2013-02-28 13:26:00,
2013-02-28 05:31:00,41.0,0.0,29.98,WSW,248,0.0,0.0,0,0.04,,,0.25,Weather View 32 v70,2013-02-28 13:31:00,
2013-02-28 05:36:00,41.0,0.0,29.98,WSW,248,0.0,0.0,0,0.04,,,0.25,Weather View 32 v70,2013-02-28 13:36:00,
2013-02-28 05:41:00,41.0,0.0,29.98,WNW,292,0.0,0.0,0,0.03,,,0.25,Weather View 32 v70,2013-02-28 13:41:00,
2013-02-28 05:46:00,41.0,0.0,29.98,West,270,0.0,0.0,0,0.03,,,0.25,Weather View 32 v70,2013-02-28 13:46:00,
2013-02-28 05:51:00,41.0,0.0,29.98,WSW,248,0.0,0.0,0,0.02,,,0.25,Weather View 32 v70,2013-02-28 13:51:00,
2013-02-28 05:56:00,41.0,0.0,29.98,West,270,0.0,0.0,0,0.02,,,0.25,Weather View 32 v70,2013-02-28 13:56:00,
2013-02-28 06:01:00,41.0,0.0,29.98,WNW,292,0.0,0.0,0,0.01,,,0.25,Weather View 32 v70,2013-02-28 14:01:00,
2013-02-28 06:06:00,41.0,0.0,29.98,WSW,248,0.0,0.0,0,0.01,,,0.25,Weather View 32 v70,2013-02-28 14:06:00,
2013-02-28 06:11:00,41.0,0.0,29.98,WNW,292,0.0,0.0,0,0.01,,,0.25,Weather View 32 v70,2013-02-28 14:11:00,
2013-02-28 06:16:00,41.0,0.0,29.97,NW,315,0.0,0.0,0,0.02,,,0.26,Weather View 32 v70,2013-02-28 14:16:00,
2013-02-28 06:21:00,41.0,0.0,29.97,WNW,292,0.0,0.0,0,0.02,,,0.26,Weather View 32 v70,2013-02-28 14:21:00,
2013-02-28 06:26:00,41.0,0.0,29.97,West,270,0.0,0.0,0,0.01,,,0.26,Weather View 32 v70,2013-02-28 14:26:00,
2013-02-28 06:31:00,41.0,0.0,29.97,WNW,292,0.0,0.0,0,0.01,,,0.26,Weather View 32 v70,2013-02-28 14:31:00,
2013-02-28 06:36:00,41.0,0.0,29.97,WSW,248,0.0,0.0,0,0.01,,,0.26,Weather View 32 v70,2013-02-28 14:36:00,
2013-02-28 06:41:00,41.0,0.0,29.97,WSW,248,0.0,0.0,0,0.01,,,0.26,Weather View 32 v70,2013-02-28 14:41:00,
2013-02-28 06:46:00,41.0,0.0,29.97,SSW,202,0.0,0.0,0,0.01,,,0.26,Weather View 32 v70,2013-02-28 14:46:00,
2013-02-28 06:51:00,41.0,0.0,29.97,WSW,248,0.0,0.0,0,0.01,,,0.26,Weather View 32 v70,2013-02-28 14:51:00,
2013-02-28 06:56:00,41.0,0.0,29.97,West,270,0.0,0.0,0,0.01,,,0.26,Weather View 32 v70,2013-02-28 14:56:00,
2013-02-28 07:01:00,41.0,0.0,29.97,WNW,292,0.0,0.0,0,0.02,,,0.27,Weather View 32 v70,2013-02-28 15:01:00,
2013-02-28 07:06:00,41.0,0.0,29.96,WSW,248,0.0,0.0,0,0.02,,,0.27,Weather View 32 v70,2013-02-28 15:06:00,
2013-02-28 07:11:00,41.0,0.0,29.96,WSW,248,0.0,0.0,0,0.02,,,0.27,Weather View 32 v70,2013-02-28 15:11:00,
2013-02-28 07:16:00,41.0,0.0,29.96,WSW,248,0.0,0.0,0,0.01,,,0.27,Weather View 32 v70,2013-02-28 15:16:00,
2013-02-28 07:21:00,41.0,0.0,29.96,WSW,248,0.0,0.0,0,0.01,,,0.28,Weather View 32 v70,2013-02-28 15:21:00,
2013-02-28 07:26:00,41.0,0.0,29.97,SW,225,0.0,0.0,0,0.02,,,0.28,Weather View 32 v70,2013-02-28 15:26:00,
2013-02-28 07:31:00,41.0,0.0,29.97,WSW,248,0.0,0.0,0,0.02,,,0.28,Weather View 32 v70,2013-02-28 15:31:00,
2013-02-28 07:36:00,41.0,0.0,29.96,SW,225,0.0,0.0,0,0.02,,,0.28,Weather View 32 v70,2013-02-28 15:36:00,
2013-02-28 07:41:00,41.0,0.0,29.97,South,180,0.0,0.0,0,0.02,,,0.28,Weather View 32 v70,2013-02-28 15:41:00,
2013-02-28 07:46:00,41.0,0.0,29.96,South,180,0.0,0.0,0,0.03,,,0.29,Weather View 32 v70,2013-02-28 15:46:00,
2013-02-28 07:51:00,41.0,0.0,29.97,SW,225,0.0,0.0,0,0.03,,,0.29,Weather View 32 v70,2013-02-28 15:51:00,
2013-02-28 07:56:00,41.0,0.0,29.97,SW,225,0.0,0.0,0,0.03,,,0.29,Weather View 32 v70,2013-02-28 15:56:00,
2013-02-28 08:01:00,41.0,0.0,29.97,SW,225,0.0,0.0,0,0.02,,,0.29,Weather View 32 v70,2013-02-28 16:01:00,
2013-02-28 08:06:00,41.0,0.0,29.96,SW,225,0.0,0.0,0,0.03,,,0.30,Weather View 32 v70,2013-02-28 16:06:00,
2013-02-28 08:11:00,41.0,0.0,29.97,SW,225,0.0,0.0,0,0.03,,,0.30,Weather View 32 v70,2013-02-28 16:11:00,
2013-02-28 08:16:00,41.0,0.0,29.97,SW,225,0.0,0.0,0,0.03,,,0.30,Weather View 32 v70,2013-02-28 16:16:00,
2013-02-28 08:21:00,41.0,0.0,29.97,SW,225,0.0,0.0,0,0.03,,,0.30,Weather View 32 v70,2013-02-28 16:21:00,
2013-02-28 08:26:00,41.0,0.0,29.97,SW,225,0.0,0.0,0,0.02,,,0.30,Weather View 32 v70,2013-02-28 16:26:00,
2013-02-28 08:31:00,41.0,0.0,29.97,SW,225,0.0,0.0,0,0.03,,,0.31,Weather View 32 v70,2013-02-28 16:31:00,
2013-02-28 08:36:00,41.0,0.0,29.97,SSE,158,0.0,0.0,0,0.03,,,0.31,Weather View 32 v70,2013-02-28 16:36:00,
2013-02-28 08:41:00,41.0,0.0,29.97,SSE,158,0.0,0.0,0,0.03,,,0.31,Weather View 32 v70,2013-02-28 16:41:00,
2013-02-28 08:46:00,41.0,0.0,29.97,South,180,0.0,0.0,0,0.02,,,0.31,Weather View 32 v70,2013-02-28 16:46:00,
2013-02-28 08:51:00,41.0,0.0,29.97,South,180,0.0,0.0,0,0.03,,,0.32,Weather View 32 v70,2013-02-28 16:51:00,
2013-02-28 08:56:00,41.0,0.0,29.96,South,180,0.0,0.0,0,0.03,,,0.32,Weather View 32 v70,2013-02-28 16:56:00,
2013-02-28 09:01:00,41.0,0.0,29.96,South,180,0.0,0.0,0,0.03,,,0.32,Weather View 32 v70,2013-02-28 17:01:00,
2013-02-28 09:06:00,42.0,0.0,29.96,SSW,202,0.0,0.0,0,0.02,,,0.32,Weather View 32 v70,2013-02-28 17:06:00,
2013-02-28 09:11:00,42.0,0.0,29.96,SSW,202,0.0,0.0,0,0.02,,,0.32,Weather View 32 v70,2013-02-28 17:11:00,
2013-02-28 09:16:00,42.0,0.0,29.96,SW,225,0.0,0.0,0,0.02,,,0.32,Weather View 32 v70,2013-02-28 17:16:00,
2013-02-28 09:21:00,42.0,0.0,29.96,SSW,202,0.0,0.0,0,0.02,,,0.32,Weather View 32 v70,2013-02-28 17:21:00,
2013-02-28 09:26:00,42.0,0.0,29.96,SSW,202,0.0,0.0,0,0.02,,,0.33,Weather View 32 v70,2013-02-28 17:26:00,
2013-02-28 09:31:00,42.0,0.0,29.96,SW,225,0.0,0.0,0,0.02,,,0.33,Weather View 32 v70,2013-02-28 17:31:00,
2013-02-28 09:36:00,42.0,0.0,29.96,SW,225,0.0,0.0,0,0.02,,,0.33,Weather View 32 v70,2013-02-28 17:36:00,
2013-02-28 09:41:00,42.0,0.0,29.96,South,180,0.0,0.0,0,0.02,,,0.33,Weather View 32 v70,2013-02-28 17:41:00,
2013-02-28 09:46:00,42.0,0.0,29.96,SW,225,0.0,0.0,0,0.02,,,0.33,Weather View 32 v70,2013-02-28 17:46:00,
2013-02-28 09:51:00,42.0,0.0,29.96,SSW,202,0.0,0.0,0,0.01,,,0.33,Weather View 32 v70,2013-02-28 17:51:00,
2013-02-28 09:56:00,42.0,0.0,29.97,SSW,202,0.0,0.0,0,0.01,,,0.33,Weather View 32 v70,2013-02-28 17:56:00,
2013-02-28 10:01:00,42.0,0.0,29.96,SW,225,0.0,0.0,0,0.01,,,0.33,Weather View 32 v70,2013-02-28 18:01:00,
2013-02-28 10:06:00,42.0,0.0,29.96,SSW,202,0.0,0.0,0,0.01,,,0.33,Weather View 32 v70,2013-02-28 18:06:00,
2013-02-28 10:11:00,42.0,0.0,29.97,SW,225,0.0,0.0,0,0.01,,,0.33,Weather View 32 v70,2013-02-28 18:11:00,
2013-02-28 10:16:00,43.0,0.0,29.96,South,180,0.0,0.0,0,0.01,,,0.33,Weather View 32 v70,2013-02-28 18:16:00,
2013-02-28 10:21:00,43.0,0.0,29.97,SSW,202,0.0,0.0,0,0.01,,,0.33,Weather View 32 v70,2013-02-28 18:21:00,
2013-02-28 10:26:00,43.0,0.0,29.97,SSW,202,0.0,0.0,0,0.01,,,0.33,Weather View 32 v70,2013-02-28 18:26:00,
2013-02-28 10:31:00,43.0,0.0,29.96,SW,225,0.0,0.0,0,0.00,,,0.33,Weather View 32 v70,2013-02-28 18:31:00,
2013-02-28 10:36:00,43.0,0.0,29.96,South,180,0.0,0.0,0,0.00,,,0.33,Weather View 32 v70,2013-02-28 18:36:00,
2013-02-28 10:41:00,43.0,0.0,29.96,SE,135,0.0,0.0,0,0.00,,,0.33,Weather View 32 v70,2013-02-28 18:41:00,
2013-02-28 10:46:00,43.0,0.0,29.96,SSW,202,0.0,0.0,0,0.00,,,0.33,Weather View 32 v70,2013-02-28 18:46:00,
2013-02-28 10:51:00,44.0,0.0,29.96,SSW,202,0.0,0.0,0,0.00,,,0.33,Weather View 32 v70,2013-02-28 18:51:00,
2013-02-28 10:56:00,44.0,0.0,29.96,South,180,0.0,0.0,0,0.00,,,0.33,Weather View 32 v70,2013-02-28 18:56:00,
2013-02-28 11:01:00,44.0,0.0,29.96,South,180,0.0,0.0,0,0.00,,,0.33,Weather View 32 v70,2013-02-28 19:01:00,
2013-02-28 11:06:00,44.0,0.0,29.95,SW,225,0.0,0.0,0,0.00,,,0.33,Weather View 32 v70,2013-02-28 19:06:00,
2013-02-28 11:11:00,44.0,0.0,29.95,SW,225,0.0,0.0,0,0.00,,,0.33,Weather View 32 v70,2013-02-28 19:11:00,
2013-02-28 11:16:00,44.0,0.0,29.95,SW,225,0.0,0.0,0,0.00,,,0.33,Weather View 32 v70,2013-02-28 19:16:00,
2013-02-28 11:21:00,44.0,0.0,29.95,SSW,202,0.0,0.0,0,0.00,,,0.33,Weather View 32 v70,2013-02-28 19:21:00,
2013-02-28 11:26:00,44.0,0.0,29.95,SSW,202,0.0,3.0,0,0.00,,,0.33,Weather View 32 v70,2013-02-28 19:26:00,
2013-02-28 11:31:00,44.0,0.0,29.95,SSW,202,0.0,3.0,0,0.00,,,0.33,Weather View 32 v70,2013-02-28 19:31:00,
2013-02-28 11:36:00,44.0,0.0,29.96,SW,225,0.0,3.0,0,0.00,,,0.33,Weather View 32 v70,2013-02-28 19:36:00,
2013-02-28 11:41:00,44.0,0.0,29.95,SSW,202,0.0,3.0,0,0.00,,,0.33,Weather View 32 v70,2013-02-28 19:41:00,
2013-02-28 11:46:00,44.0,0.0,29.96,SW,225,0.0,3.0,0,0.00,,,0.33,Weather View 32 v70,2013-02-28 19:46:00,
2013-02-28 11:51:00,45.0,0.0,29.96,SW,225,0.0,3.0,0,0.00,,,0.33,Weather View 32 v70,2013-02-28 19:51:00,
2013-02-28 11:56:00,45.0,0.0,29.96,South,180,0.0,3.0,0,0.00,,,0.33,Weather View 32 v70,2013-02-28 19:56:00,
2013-02-28 12:01:00,45.0,0.0,29.96,SSW,202,0.0,3.0,0,0.00,,,0.33,Weather View 32 v70,2013-02-28 20:01:00,
2013-02-28 12:06:00,45.0,0.0,29.96,SW,225,0.0,3.0,0,0.00,,,0.33,Weather View 32 v70,2013-02-28 20:06:00,
2013-02-28 12:11:00,45.0,0.0,29.96,South,180,0.0,3.0,0,0.00,,,0.33,Weather View 32 v70,2013-02-28 20:11:00,
2013-02-28 12:16:00,45.0,0.0,29.96,South,180,0.0,3.0,0,0.00,,,0.33,Weather View 32 v70,2013-02-28 20:16:00,
2013-02-28 12:21:00,45.0,0.0,29.96,South,180,0.0,3.0,0,0.00,,,0.33,Weather View 32 v70,2013-02-28 20:21:00,
2013-02-28 12:26:00,46.0,0.0,29.96,SW,225,0.0,3.0,0,0.00,,,0.33,Weather View 32 v70,2013-02-28 20:26:00,
2013-02-28 12:31:00,46.0,0.0,29.96,SSW,202,0.0,3.0,0,0.00,,,0.33,Weather View 32 v70,2013-02-28 20:31:00,
2013-02-28 12:36:00,46.0,0.0,29.96,South,180,0.0,3.0,0,0.00,,,0.33,Weather View 32 v70,2013-02-28 20:36:00,
2013-02-28 12:41:00,46.0,0.0,29.96,SSW,202,0.0,3.0,0,0.00,,,0.33,Weather View 32 v70,2013-02-28 20:41:00,
2013-02-28 12:46:00,46.0,0.0,29.96,SSW,202,2.0,3.0,0,0.00,,,0.33,Weather View 32 v70,2013-02-28 20:46:00,
2013-02-28 12:51:00,47.0,0.0,29.96,SW,225,1.0,5.0,0,0.00,,,0.33,Weather View 32 v70,2013-02-28 20:51:00,
2013-02-28 12:56:00,47.0,0.0,29.96,WNW,292,0.0,5.0,0,0.00,,,0.33,Weather View 32 v70,2013-02-28 20:56:00,
2013-02-28 13:01:00,47.0,0.0,29.96,SE,135,0.0,5.0,0,0.00,,,0.33,Weather View 32 v70,2013-02-28 21:01:00,
2013-02-28 13:06:00,47.0,0.0,29.96,South,180,0.0,5.0,0,0.00,,,0.33,Weather View 32 v70,2013-02-28 21:06:00,
2013-02-28 13:11:00,47.0,0.0,29.96,SW,225,0.0,5.0,0,0.00,,,0.33,Weather View 32 v70,2013-02-28 21:11:00,
2013-02-28 13:16:00,47.0,0.0,29.96,South,180,0.0,5.0,0,0.00,,,0.33,Weather View 32 v70,2013-02-28 21:16:00,
2013-02-28 13:21:00,47.0,0.0,29.96,WSW,248,0.0,5.0,0,0.00,,,0.33,Weather View 32 v70,2013-02-28 21:21:00,
2013-02-28 13:26:00,48.0,0.0,29.96,WSW,248,0.0,5.0,0,0.00,,,0.33,Weather View 32 v70,2013-02-28 21:26:00,
2013-02-28 13:31:00,48.0,0.0,29.96,WSW,248,0.0,5.0,0,0.00,,,0.33,Weather View 32 v70,2013-02-28 21:31:00,
2013-02-28 13:36:00,48.0,0.0,29.96,WSW,248,0.0,5.0,0,0.00,,,0.33,Weather View 32 v70,2013-02-28 21:36:00,
2013-02-28 13:41:00,48.0,0.0,29.97,WSW,248,0.0,5.0,0,0.00,,,0.33,Weather View 32 v70,2013-02-28 21:41:00,
2013-02-28 13:46:00,48.0,0.0,29.96,SW,225,0.0,5.0,0,0.00,,,0.33,Weather View 32 v70,2013-02-28 21:46:00,
2013-02-28 13:51:00,48.0,0.0,29.96,WSW,248,0.0,5.0,0,0.00,,,0.33,Weather View 32 v70,2013-02-28 21:51:00,
2013-02-28 13:56:00,48.0,0.0,29.96,South,180,0.0,2.0,0,0.00,,,0.33,Weather View 32 v70,2013-02-28 21:56:00,
2013-02-28 14:01:00,48.0,0.0,29.97,South,180,0.0,2.0,0,0.00,,,0.33,Weather View 32 v70,2013-02-28 22:01:00,
2013-02-28 14:06:00,48.0,0.0,29.97,SW,225,0.0,2.0,0,0.00,,,0.33,Weather View 32 v70,2013-02-28 22:06:00,
2013-02-28 14:11:00,48.0,0.0,29.97,South,180,0.0,2.0,0,0.00,,,0.33,Weather View 32 v70,2013-02-28 22:11:00,
2013-02-28 14:16:00,48.0,0.0,29.98,South,180,0.0,3.0,0,0.00,,,0.33,Weather View 32 v70,2013-02-28 22:16:00,
2013-02-28 14:21:00,48.0,0.0,29.98,SW,225,0.0,3.0,0,0.00,,,0.33,Weather View 32 v70,2013-02-28 22:21:00,
2013-02-28 14:26:00,48.0,0.0,29.97,South,180,0.0,3.0,0,0.00,,,0.33,Weather View 32 v70,2013-02-28 22:26:00,
2013-02-28 14:31:00,48.0,0.0,29.97,South,180,0.0,3.0,0,0.00,,,0.33,Weather View 32 v70,2013-02-28 22:31:00,
2013-02-28 14:36:00,48.0,0.0,29.98,South,180,0.0,3.0,0,0.00,,,0.33,Weather View 32 v70,2013-02-28 22:36:00,
2013-02-28 14:41:00,48.0,0.0,29.98,SSE,158,0.0,3.0,0,0.00,,,0.33,Weather View 32 v70,2013-02-28 22:41:00,
2013-02-28 14:46:00,49.0,0.0,29.98,SW,225,0.0,3.0,0,0.00,,,0.33,Weather View 32 v70,2013-02-28 22:46:00,
2013-02-28 14:51:00,49.0,0.0,29.99,SSE,158,0.0,3.0,0,0.00,,,0.33,Weather View 32 v70,2013-02-28 22:51:00,
2013-02-28 14:56:00,49.0,0.0,29.99,WSW,248,0.0,3.0,0,0.00,,,0.33,Weather View 32 v70,2013-02-28 22:56:00,
2013-02-28 15:01:00,49.0,0.0,29.99,WNW,292,0.0,3.0,0,0.00,,,0.33,Weather View 32 v70,2013-02-28 23:01:00,
2013-02-28 15:06:00,49.0,0.0,29.99,South,180,0.0,3.0,0,0.00,,,0.33,Weather View 32 v70,2013-02-28 23:06:00,
2013-02-28 15:11:00,49.0,0.0,29.99,SW,225,0.0,3.0,0,0.00,,,0.33,Weather View 32 v70,2013-02-28 23:11:00,
2013-02-28 15:16:00,49.0,0.0,29.99,SW,225,0.0,0.0,0,0.00,,,0.33,Weather View 32 v70,2013-02-28 23:16:00,
2013-02-28 15:21:00,49.0,0.0,29.99,SW,225,0.0,0.0,0,0.00,,,0.33,Weather View 32 v70,2013-02-28 23:21:00,
2013-02-28 15:26:00,49.0,0.0,29.99,SW,225,0.0,0.0,0,0.00,,,0.33,Weather View 32 v70,2013-02-28 23:26:00,
2013-02-28 15:31:00,49.0,0.0,29.99,SW,225,0.0,0.0,0,0.00,,,0.33,Weather View 32 v70,2013-02-28 23:31:00,
2013-02-28 15:36:00,49.0,0.0,29.99,South,180,0.0,0.0,0,0.00,,,0.33,Weather View 32 v70,2013-02-28 23:36:00,
2013-02-28 15:41:00,49.0,0.0,29.99,SSW,202,0.0,0.0,0,0.00,,,0.33,Weather View 32 v70,2013-02-28 23:41:00,
2013-02-28 15:46:00,49.0,0.0,30.00,ESE,112,3.0,3.0,0,0.00,,,0.33,Weather View 32 v70,2013-02-28 23:46:00,
2013-02-28 15:51:00,50.0,0.0,30.00,SW,225,0.0,5.0,0,0.00,,,0.33,Weather View 32 v70,2013-02-28 23:51:00,
2013-02-28 15:56:00,50.0,0.0,30.00,SSW,202,0.0,8.0,0,0.00,,,0.33,Weather View 32 v70,2013-02-28 23:56:00,
2013-02-28 16:01:00,50.0,0.0,30.00,SW,225,3.0,8.0,0,0.00,,,0.33,Weather View 32 v70,2013-03-01 00:01:00,
2013-02-28 16:06:00,50.0,0.0,30.00,SW,225,0.0,8.0,0,0.00,,,0.33,Weather View 32 v70,2013-03-01 00:06:00,
2013-02-28 16:11:00,50.0,0.0,30.00,SSE,158,0.0,8.0,0,0.00,,,0.33,Weather View 32 v70,2013-03-01 00:11:00,
2013-02-28 16:16:00,50.0,0.0,30.00,WSW,248,0.0,8.0,0,0.00,,,0.33,Weather View 32 v70,2013-03-01 00:16:00,
2013-02-28 16:21:00,50.0,0.0,30.00,SW,225,0.0,8.0,0,0.00,,,0.33,Weather View 32 v70,2013-03-01 00:21:00,
2013-02-28 16:26:00,50.0,0.0,30.00,SSW,202,0.0,8.0,0,0.00,,,0.33,Weather View 32 v70,2013-03-01 00:26:00,
2013-02-28 16:31:00,50.0,0.0,29.99,South,180,0.0,8.0,0,0.00,,,0.33,Weather View 32 v70,2013-03-01 00:31:00,
2013-02-28 16:36:00,50.0,0.0,29.99,SW,225,0.0,8.0,0,0.00,,,0.33,Weather View 32 v70,2013-03-01 00:36:00,
2013-02-28 16:41:00,50.0,0.0,30.00,SW,225,0.0,8.0,0,0.00,,,0.33,Weather View 32 v70,2013-03-01 00:41:00,
2013-02-28 16:46:00,50.0,0.0,30.00,SW,225,0.0,8.0,0,0.00,,,0.33,Weather View 32 v70,2013-03-01 00:46:00,
2013-02-28 16:51:00,50.0,0.0,30.00,SW,225,4.0,8.0,0,0.00,,,0.33,Weather View 32 v70,2013-03-01 00:51:00,
2013-02-28 16:56:00,50.0,0.0,30.00,SW,225,5.0,6.0,0,0.00,,,0.33,Weather View 32 v70,2013-03-01 00:56:00,
2013-02-28 17:01:00,50.0,0.0,30.00,SSW,202,3.0,8.0,0,0.00,,,0.33,Weather View 32 v70,2013-03-01 01:01:00,
2013-02-28 17:06:00,50.0,0.0,30.00,SW,225,3.0,8.0,0,0.00,,,0.33,Weather View 32 v70,2013-03-01 01:06:00,
2013-02-28 17:11:00,50.0,0.0,30.00,SSW,202,3.0,8.0,0,0.00,,,0.33,Weather View 32 v70,2013-03-01 01:11:00,
2013-02-28 17:16:00,50.0,0.0,29.99,SW,225,3.0,8.0,0,0.00,,,0.33,Weather View 32 v70,2013-03-01 01:16:00,
2013-02-28 17:21:00,50.0,0.0,29.99,SW,225,3.0,8.0,0,0.00,,,0.33,Weather View 32 v70,2013-03-01 01:21:00,
2013-02-28 17:26:00,50.0,0.0,29.99,SSW,202,3.0,8.0,0,0.00,,,0.33,Weather View 32 v70,2013-03-01 01:26:00,
2013-02-28 17:31:00,49.0,0.0,29.99,South,180,3.0,8.0,0,0.00,,,0.33,Weather View 32 v70,2013-03-01 01:31:00,
2013-02-28 17:36:00,49.0,0.0,29.99,WSW,248,5.0,8.0,0,0.00,,,0.33,Weather View 32 v70,2013-03-01 01:36:00,
2013-02-28 17:41:00,49.0,0.0,29.99,SW,225,5.0,8.0,0,0.00,,,0.33,Weather View 32 v70,2013-03-01 01:41:00,
2013-02-28 17:46:00,49.0,0.0,30.00,SSW,202,6.0,9.0,0,0.00,,,0.33,Weather View 32 v70,2013-03-01 01:46:00,
2013-02-28 17:51:00,49.0,0.0,30.00,SSW,202,5.0,9.0,0,0.00,,,0.33,Weather View 32 v70,2013-03-01 01:51:00,
2013-02-28 17:56:00,49.0,0.0,30.00,SW,225,5.0,9.0,0,0.00,,,0.33,Weather View 32 v70,2013-03-01 01:56:00,
2013-02-28 18:01:00,49.0,0.0,30.00,SW,225,5.0,9.0,0,0.00,,,0.33,Weather View 32 v70,2013-03-01 02:01:00,
2013-02-28 18:06:00,49.0,0.0,30.00,SW,225,5.0,9.0,0,0.00,,,0.33,Weather View 32 v70,2013-03-01 02:06:00,
2013-02-28 18:11:00,49.0,0.0,30.01,SW,225,6.0,9.0,0,0.00,,,0.33,Weather View 32 v70,2013-03-01 02:11:00,
2013-02-28 18:16:00,49.0,0.0,30.01,SW,225,5.0,9.0,0,0.00,,,0.33,Weather View 32 v70,2013-03-01 02:16:00,
2013-02-28 18:21:00,49.0,0.0,30.01,SSW,202,5.0,9.0,0,0.00,,,0.33,Weather View 32 v70,2013-03-01 02:21:00,
2013-02-28 18:26:00,49.0,0.0,30.01,SW,225,6.0,9.0,0,0.00,,,0.33,Weather View 32 v70,2013-03-01 02:26:00,
2013-02-28 18:31:00,49.0,0.0,30.02,SW,225,4.0,9.0,0,0.00,,,0.33,Weather View 32 v70,2013-03-01 02:31:00,
2013-02-28 18:36:00,49.0,0.0,30.02,SSW,202,3.0,9.0,0,0.00,,,0.33,Weather View 32 v70,2013-03-01 02:36:00,
2013-02-28 18:41:00,49.0,0.0,30.02,WSW,248,4.0,9.0,0,0.00,,,0.33,Weather View 32 v70,2013-03-01 02:41:00,
2013-02-28 18:46:00,49.0,0.0,30.02,SW,225,5.0,8.0,0,0.00,,,0.33,Weather View 32 v70,2013-03-01 02:46:00,
2013-02-28 18:51:00,49.0,0.0,30.02,SW,225,6.0,8.0,0,0.00,,,0.33,Weather View 32 v70,2013-03-01 02:51:00,
2013-02-28 18:56:00,48.0,0.0,30.02,SW,225,5.0,8.0,0,0.00,,,0.33,Weather View 32 v70,2013-03-01 02:56:00,
2013-02-28 19:01:00,49.0,0.0,30.03,WSW,248,3.0,8.0,0,0.00,,,0.33,Weather View 32 v70,2013-03-01 03:01:00,
2013-02-28 19:06:00,48.0,0.0,30.03,SSW,202,5.0,8.0,0,0.00,,,0.33,Weather View 32 v70,2013-03-01 03:06:00,
2013-02-28 19:11:00,49.0,0.0,30.04,SSW,202,4.0,7.0,0,0.00,,,0.33,Weather View 32 v70,2013-03-01 03:11:00,
2013-02-28 19:16:00,49.0,0.0,30.04,SW,225,2.0,7.0,0,0.00,,,0.33,Weather View 32 v70,2013-03-01 03:16:00,
2013-02-28 19:21:00,49.0,0.0,30.04,South,180,3.0,7.0,0,0.00,,,0.33,Weather View 32 v70,2013-03-01 03:21:00,
2013-02-28 19:26:00,49.0,0.0,30.04,WSW,248,2.0,7.0,0,0.00,,,0.33,Weather View 32 v70,2013-03-01 03:26:00,
2013-02-28 19:31:00,49.0,0.0,30.04,WSW,248,2.0,7.0,0,0.00,,,0.33,Weather View 32 v70,2013-03-01 03:31:00,
2013-02-28 19:36:00,49.0,0.0,30.04,South,180,0.0,7.0,0,0.00,,,0.33,Weather View 32 v70,2013-03-01 03:36:00,
2013-02-28 19:41:00,49.0,0.0,30.04,SW,225,3.0,7.0,0,0.00,,,0.33,Weather View 32 v70,2013-03-01 03:41:00,
2013-02-28 19:46:00,49.0,0.0,30.04,South,180,0.0,7.0,0,0.00,,,0.33,Weather View 32 v70,2013-03-01 03:46:00,
2013-02-28 19:51:00,49.0,0.0,30.04,SW,225,0.0,7.0,0,0.00,,,0.33,Weather View 32 v70,2013-03-01 03:51:00,
2013-02-28 19:56:00,49.0,0.0,30.04,South,180,3.0,7.0,0,0.00,,,0.33,Weather View 32 v70,2013-03-01 03:56:00,
2013-02-28 20:01:00,49.0,0.0,30.04,SW,225,2.0,7.0,0,0.00,,,0.33,Weather View 32 v70,2013-03-01 04:01:00,
2013-02-28 20:06:00,49.0,0.0,30.04,SW,225,1.0,7.0,0,0.00,,,0.33,Weather View 32 v70,2013-03-01 04:06:00,
2013-02-28 20:11:00,49.0,0.0,30.04,SW,225,3.0,7.0,0,0.00,,,0.33,Weather View 32 v70,2013-03-01 04:11:00,
2013-02-28 20:16:00,49.0,0.0,30.04,SSE,158,1.0,7.0,0,0.00,,,0.33,Weather View 32 v70,2013-03-01 04:16:00,
2013-02-28 20:21:00,49.0,0.0,30.04,SW,225,3.0,5.0,0,0.00,,,0.33,Weather View 32 v70,2013-03-01 04:21:00,
2013-02-28 20:26:00,49.0,0.0,30.04,SW,225,5.0,5.0,0,0.00,,,0.33,Weather View 32 v70,2013-03-01 04:26:00,
2013-02-28 20:31:00,49.0,0.0,30.04,SW,225,0.0,5.0,0,0.00,,,0.33,Weather View 32 v70,2013-03-01 04:31:00,
2013-02-28 20:36:00,49.0,0.0,30.05,SW,225,3.0,5.0,0,0.00,,,0.33,Weather View 32 v70,2013-03-01 04:36:00,
2013-02-28 20:41:00,48.0,0.0,30.05,SSW,202,0.0,5.0,0,0.00,,,0.33,Weather View 32 v70,2013-03-01 04:41:00,
2013-02-28 20:46:00,48.0,0.0,30.06,WSW,248,0.0,5.0,0,0.00,,,0.33,Weather View 32 v70,2013-03-01 04:46:00,
2013-02-28 20:51:00,48.0,0.0,30.06,SSW,202,5.0,5.0,0,0.00,,,0.33,Weather View 32 v70,2013-03-01 04:51:00,
2013-02-28 20:56:00,48.0,0.0,30.06,SSW,202,4.0,6.0,0,0.00,,,0.33,Weather View 32 v70,2013-03-01 04:56:00,
2013-02-28 21:00:00,48.0,0.0,30.06,SSW,202,2.0,6.0,0,0.00,,,0.33,Weather View 32 v70,2013-03-01 05:00:00,
2013-02-28 21:05:00,48.0,0.0,30.06,SSE,158,0.0,6.0,0,0.00,,,0.33,Weather View 32 v70,2013-03-01 05:05:00,
2013-02-28 21:06:00,48.0,0.0,30.07,SW,225,4.0,6.0,0,0.00,,,0.33,Weather View 32 v70,2013-03-01 05:06:00,
2013-02-28 21:11:00,49.0,0.0,30.07,SSW,202,0.0,6.0,0,0.00,,,0.33,Weather View 32 v70,2013-03-01 05:11:00,
2013-02-28 21:16:00,49.0,0.0,30.07,SSW,202,1.0,6.0,0,0.00,,,0.33,Weather View 32 v70,2013-03-01 05:16:00,
2013-02-28 21:21:00,49.0,0.0,30.07,SW,225,0.0,6.0,0,0.01,,,0.34,Weather View 32 v70,2013-03-01 05:21:00,
2013-02-28 21:26:00,49.0,0.0,30.08,SW,225,0.0,6.0,0,0.01,,,0.34,Weather View 32 v70,2013-03-01 05:26:00,
2013-02-28 21:31:00,48.0,0.0,30.08,SSW,202,0.0,6.0,0,0.01,,,0.34,Weather View 32 v70,2013-03-01 05:31:00,
2013-02-28 21:36:00,48.0,0.0,30.08,SW,225,4.0,6.0,0,0.01,,,0.34,Weather View 32 v70,2013-03-01 05:36:00,
2013-02-28 21:41:00,48.0,0.0,30.07,SSE,158,0.0,6.0,0,0.01,,,0.34,Weather View 32 v70,2013-03-01 05:41:00,
2013-02-28 21:46:00,48.0,0.0,30.08,SSW,202,2.0,6.0,0,0.01,,,0.34,Weather View 32 v70,2013-03-01 05:46:00,
2013-02-28 21:51:00,48.0,0.0,30.08,SSW,202,3.0,6.0,0,0.01,,,0.34,Weather View 32 v70,2013-03-01 05:51:00,
2013-02-28 21:56:00,48.0,0.0,30.08,South,180,2.0,6.0,0,0.01,,,0.34,Weather View 32 v70,2013-03-01 05:56:00,
2013-02-28 22:01:00,48.0,0.0,30.08,SW,225,0.0,6.0,0,0.01,,,0.34,Weather View 32 v70,2013-03-01 06:01:00,
2013-02-28 22:06:00,48.0,0.0,30.08,West,270,0.0,6.0,0,0.01,,,0.34,Weather View 32 v70,2013-03-01 06:06:00,
2013-02-28 22:11:00,48.0,0.0,30.08,SW,225,0.0,6.0,0,0.01,,,0.34,Weather View 32 v70,2013-03-01 06:11:00,
2013-02-28 22:16:00,48.0,0.0,30.08,SW,225,0.0,6.0,0,0.01,,,0.34,Weather View 32 v70,2013-03-01 06:16:00,
2013-02-28 22:21:00,48.0,0.0,30.08,SW,225,0.0,6.0,0,0.00,,,0.34,Weather View 32 v70,2013-03-01 06:21:00,
2013-02-28 22:26:00,48.0,0.0,30.08,WSW,248,0.0,6.0,0,0.00,,,0.34,Weather View 32 v70,2013-03-01 06:26:00,
2013-02-28 22:31:00,48.0,0.0,30.08,SSW,202,0.0,6.0,0,0.00,,,0.34,Weather View 32 v70,2013-03-01 06:31:00,
2013-02-28 22:36:00,48.0,0.0,30.08,SW,225,0.0,6.0,0,0.00,,,0.34,Weather View 32 v70,2013-03-01 06:36:00,
2013-02-28 22:41:00,48.0,0.0,30.08,SW,225,0.0,6.0,0,0.00,,,0.34,Weather View 32 v70,2013-03-01 06:41:00,
2013-02-28 22:46:00,48.0,0.0,30.08,SW,225,0.0,5.0,0,0.00,,,0.34,Weather View 32 v70,2013-03-01 06:46:00,
2013-02-28 22:51:00,48.0,0.0,30.08,SSW,202,0.0,5.0,0,0.01,,,0.35,Weather View 32 v70,2013-03-01 06:51:00,
2013-02-28 22:56:00,48.0,0.0,30.07,WSW,248,0.0,4.0,0,0.01,,,0.35,Weather View 32 v70,2013-03-01 06:56:00,
2013-02-28 23:01:00,48.0,0.0,30.07,SW,225,0.0,1.0,0,0.01,,,0.35,Weather View 32 v70,2013-03-01 07:01:00,
2013-02-28 23:06:00,48.0,0.0,30.08,SW,225,0.0,1.0,0,0.01,,,0.35,Weather View 32 v70,2013-03-01 07:06:00,
2013-02-28 23:11:00,48.0,0.0,30.08,SW,225,0.0,1.0,0,0.01,,,0.35,Weather View 32 v70,2013-03-01 07:11:00,
2013-02-28 23:16:00,48.0,0.0,30.08,SSW,202,0.0,1.0,0,-0.21,,,0.35,Weather View 32 v70,2013-03-01 07:16:00,
2013-02-28 23:21:00,48.0,0.0,30.08,SSW,202,0.0,1.0,0,0.01,,,0.35,Weather View 32 v70,2013-03-01 07:21:00,
2013-02-28 23:26:00,48.0,0.0,30.09,South,180,0.0,0.0,0,0.02,,,0.36,Weather View 32 v70,2013-03-01 07:26:00,
2013-02-28 23:31:00,48.0,0.0,30.09,SSW,202,0.0,0.0,0,0.02,,,0.36,Weather View 32 v70,2013-03-01 07:31:00,
2013-02-28 23:36:00,48.0,0.0,30.10,SW,225,0.0,0.0,0,0.02,,,0.36,Weather View 32 v70,2013-03-01 07:36:00,
2013-02-28 23:41:00,48.0,0.0,30.09,SW,225,0.0,0.0,0,0.03,,,0.37,Weather View 32 v70,2013-03-01 07:41:00,
2013-02-28 23:46:00,48.0,0.0,30.09,SW,225,0.0,0.0,0,0.04,,,0.38,Weather View 32 v70,2013-03-01 07:46:00,
2013-02-28 23:51:00,48.0,0.0,30.09,SSW,202,0.0,0.0,0,0.03,,,0.38,Weather View 32 v70,2013-03-01 07:51:00,
2013-02-28 23:56:00,48.0,0.0,30.08,SSW,202,0.0,0.0,0,0.04,,,0.39,Weather View 32 v70,2013-03-01 07:56:00,